Janus — CFK9598 — position and weather

sailwx.info

Track history (hours):
 
Tides and Currents Weather Stations Pressure Air Temp Water Temp Dewpoint Dewpoint Depression Visibility Wind Speed Wind Dir Waves Ship Positions

Janus

Last reported at 2018-Jun-19 16:33 UTC. Time now 2018-Jun-20 11:27 UTC.
Position N 52°16' W 128°41'.

Length 25 m.

Type: Pleasure craft. MMSI: 316019802.

Date/timePositionNaut miles runAvg speedWind from/ knotsBaromVisibWave heightAir tempDewpointWater temp
2018-Jun-19 16:33N 52°16' W 128°41'20 3.1
2018-Jun-19 09:55N 52°12' W 128°08'0 0.0
2018-Jun-19 09:16N 52°12' W 128°08'0 0.0
2018-Jun-19 08:05N 52°12' W 128°08'0 0.0
2018-Jun-19 07:52N 52°12' W 128°08'0 0.1
2018-Jun-19 07:19N 52°12' W 128°08'0 0.1
2018-Jun-19 06:58N 52°12' W 128°08'0 0.0
2018-Jun-19 06:25N 52°12' W 128°08'2 0.3
2018-Jun-19 01:11N 52°11' W 128°07'1 8.1
2018-Jun-19 01:00N 52°09' W 128°08'4 8.7
2018-Jun-19 00:30N 52°05' W 128°06'5 9.3
2018-Jun-19 00:00N 52°04' W 127°58'5 8.2
2018-Jun-18 23:26N 52°00' W 127°56'4 9.0
2018-Jun-18 23:01N 51°56' W 127°55'5 9.4
2018-Jun-18 22:30N 51°52' W 127°55'5 9.4
2018-Jun-18 22:00N 51°47' W 127°55'4 8.5
2018-Jun-18 21:30N 51°43' W 127°54'4 8.8
2018-Jun-18 21:00N 51°38' W 127°54'4 8.8
2018-Jun-18 20:30N 51°34' W 127°53'17 8.7
2018-Jun-18 18:29N 51°16' W 127°51'7 8.3
2018-Jun-18 17:37N 51°09' W 127°50'2 8.6
2018-Jun-18 17:22N 51°07' W 127°48'4 9.1
2018-Jun-18 16:56N 51°05' W 127°43'4 9.4
2018-Jun-18 16:30N 51°02' W 127°38'5 9.2
2018-Jun-18 15:59N 50°59' W 127°33'4 7.3
2018-Jun-18 15:29N 50°57' W 127°28'4 8.3
2018-Jun-18 15:00N 50°54' W 127°23'4 7.4
2018-Jun-18 14:27N 50°54' W 127°17'1 0.5
2018-Jun-18 13:06N 50°54' W 127°17'0 0.0
2018-Jun-18 12:42N 50°54' W 127°17'0 0.0
2018-Jun-18 12:30N 50°54' W 127°17'0 0.0
2018-Jun-18 12:00N 50°54' W 127°17'0 0.0
2018-Jun-18 11:24N 50°54' W 127°17'0 0.0
2018-Jun-18 10:52N 50°54' W 127°17'0 0.0
2018-Jun-18 10:28N 50°54' W 127°17'0 0.0
2018-Jun-18 09:58N 50°54' W 127°17'0 0.1
2018-Jun-18 09:28N 50°54' W 127°17'0 0.1
2018-Jun-18 08:58N 50°54' W 127°17'0 0.0
2018-Jun-18 08:22N 50°54' W 127°17'0 0.1
2018-Jun-18 07:58N 50°54' W 127°17'0 0.1
2018-Jun-18 07:28N 50°54' W 127°17'0 0.1
2018-Jun-18 06:51N 50°54' W 127°17'0 0.0
2018-Jun-18 06:09N 50°54' W 127°17'0 0.0
2018-Jun-18 05:39N 50°54' W 127°17'0 0.0
2018-Jun-18 05:21N 50°54' W 127°17'0 0.1
2018-Jun-18 04:57N 50°54' W 127°17'0 0.0
2018-Jun-18 04:27N 50°54' W 127°17'0 0.1
2018-Jun-18 03:51N 50°54' W 127°17'0 0.0
2018-Jun-18 03:21N 50°54' W 127°17'0 0.0
2018-Jun-18 02:51N 50°54' W 127°17'0 0.0
2018-Jun-18 02:27N 50°54' W 127°17'0 0.0
2018-Jun-18 01:51N 50°54' W 127°17'1 3.3
2018-Jun-18 01:30N 50°53' W 127°16'4 8.6
2018-Jun-18 00:59N 50°50' W 127°11'79 8.0
2018-Jun-17 15:08N 50°25' W 125°13'1 9.6
2018-Jun-17 14:59N 50°24' W 125°11'4 7.2
2018-Jun-17 14:29N 50°21' W 125°08'2 5.1
2018-Jun-17 14:00N 50°19' W 125°06'3 5.7
2018-Jun-17 13:30N 50°16' W 125°04'3 6.2
2018-Jun-17 13:00N 50°14' W 125°02'4 7.2
2018-Jun-17 12:30N 50°10' W 125°01'2 3.0
2018-Jun-17 11:58N 50°08' W 125°00'0 0.0
2018-Jun-17 11:28N 50°08' W 125°00'0 0.0
2018-Jun-17 11:00N 50°08' W 125°00'0 0.1
2018-Jun-17 10:30N 50°08' W 125°00'0 0.1
2018-Jun-17 10:00N 50°08' W 125°00'0 0.0
2018-Jun-17 09:30N 50°08' W 125°00'0 0.0
2018-Jun-17 09:00N 50°08' W 125°00'0 0.0
2018-Jun-17 08:30N 50°08' W 125°00'0 0.0
2018-Jun-17 08:00N 50°08' W 125°00'0 0.0
2018-Jun-17 07:30N 50°08' W 125°00'0 0.1
2018-Jun-17 07:00N 50°08' W 125°00'0 0.0
2018-Jun-17 06:30N 50°08' W 125°00'0 0.0
2018-Jun-17 06:00N 50°08' W 125°00'0 0.1
2018-Jun-17 05:27N 50°08' W 125°00'0 0.1
2018-Jun-17 05:00N 50°08' W 125°00'0 0.1
2018-Jun-17 04:30N 50°08' W 125°00'0 0.0
2018-Jun-17 04:00N 50°08' W 125°00'0 0.0
2018-Jun-17 03:30N 50°08' W 125°00'4 7.5
2018-Jun-17 03:00N 50°12' W 125°00'2 4.2
2018-Jun-17 02:30N 50°13' W 124°58'5 9.2
2018-Jun-17 02:00N 50°09' W 124°54'1 2.6
2018-Jun-17 01:28N 50°08' W 124°55'3 7.2
2018-Jun-17 01:00N 50°05' W 124°53'4 8.8
2018-Jun-17 00:29N 50°01' W 124°49'4 8.9
2018-Jun-17 00:00N 49°58' W 124°45'4 8.4
2018-Jun-16 23:30N 49°55' W 124°41'5 8.5
2018-Jun-16 22:55N 49°51' W 124°36'6 8.3
2018-Jun-16 22:09N 49°47' W 124°29'3 8.6
2018-Jun-16 21:49N 49°45' W 124°25'51 7.7
2018-Jun-16 15:12N 49°19' W 123°17'4 9.1
2018-Jun-16 14:45N 49°19' W 123°11'2 8.6
2018-Jun-16 14:30N 49°19' W 123°08'1 2.0
2018-Jun-16 13:55N 49°17' W 123°07'0 0.0
2018-Jun-16 12:34N 49°17' W 123°07'0 0.0
2018-Jun-16 11:07N 49°17' W 123°07'0 0.0
2018-Jun-16 10:37N 49°17' W 123°07'0 0.0
2018-Jun-16 10:13N 49°17' W 123°07'0 0.0
2018-Jun-16 09:55N 49°17' W 123°07'0 0.0
2018-Jun-16 09:19N 49°17' W 123°07'0 0.0
2018-Jun-16 06:37N 49°17' W 123°07'0 0.0
2018-Jun-16 05:07N 49°17' W 123°07'0 0.0
2018-Jun-16 04:55N 49°17' W 123°07'0 0.0
2018-Jun-16 03:25N 49°17' W 123°07'0 0.0
2018-Jun-15 22:49N 49°17' W 123°07'0 0.0
2018-Jun-15 22:28N 49°17' W 123°07'0 0.0
2018-Jun-15 21:46N 49°17' W 123°07'0 0.0
2018-Jun-15 21:22N 49°17' W 123°07'0 0.0
2018-Jun-15 20:43N 49°17' W 123°07'0 0.0
2018-Jun-15 19:47N 49°17' W 123°07'0 0.0
2018-Jun-15 19:26N 49°17' W 123°07'0 0.0
2018-Jun-15 18:56N 49°17' W 123°07'0 0.0
2018-Jun-15 18:26N 49°17' W 123°07'0 0.0
2018-Jun-15 17:41N 49°17' W 123°07'0 0.0
2018-Jun-15 07:39N 49°17' W 123°07'0 0.0
2018-Jun-15 07:15N 49°17' W 123°07'0 0.0
2018-Jun-15 06:51N 49°17' W 123°07'0 0.0
2018-Jun-15 06:15N 49°17' W 123°07'0 0.0
2018-Jun-15 05:57N 49°17' W 123°07'0 0.0
2018-Jun-15 04:27N 49°17' W 123°07'0 0.0
2018-Jun-15 03:51N 49°17' W 123°07'0 0.0
2018-Jun-15 03:21N 49°17' W 123°07'0 0.0
2018-Jun-15 02:54N 49°17' W 123°07'0 0.0
2018-Jun-15 02:15N 49°17' W 123°07'0 0.0
2018-Jun-15 01:18N 49°17' W 123°07'0 0.0
2018-Jun-15 00:48N 49°17' W 123°07'0 0.0
2018-Jun-15 00:21N 49°17' W 123°07'0 0.0
2018-Jun-15 00:00N 49°17' W 123°07'0 0.0
2018-Jun-14 23:21N 49°17' W 123°07'0 0.0
2018-Jun-14 22:54N 49°17' W 123°07'0 0.0
2018-Jun-14 22:18N 49°17' W 123°07'0 0.0
2018-Jun-14 21:51N 49°17' W 123°07'0 0.0
2018-Jun-14 21:27N 49°17' W 123°07'0 0.0
2018-Jun-14 20:45N 49°17' W 123°07'0 0.0
2018-Jun-14 20:06N 49°17' W 123°07'0 0.0
2018-Jun-14 20:00N 49°17' W 123°07'0 0.0
2018-Jun-14 19:21N 49°17' W 123°07'0 0.0
2018-Jun-14 19:00N 49°17' W 123°07'0 0.0
2018-Jun-14 18:21N 49°17' W 123°07'0 0.0
2018-Jun-14 17:48N 49°17' W 123°07'0 0.0
2018-Jun-14 17:30N 49°17' W 123°07'0 0.0
2018-Jun-14 16:57N 49°17' W 123°07'0 0.0
2018-Jun-14 15:39N 49°17' W 123°07'0 0.0
2018-Jun-14 15:09N 49°17' W 123°07'0 0.0
2018-Jun-14 14:54N 49°17' W 123°07'0 0.0
2018-Jun-14 14:30N 49°17' W 123°07'0 0.0
2018-Jun-14 14:00N 49°17' W 123°07'0 0.0
2018-Jun-14 13:24N 49°17' W 123°07'0 0.0
2018-Jun-14 13:00N 49°17' W 123°07'0 0.0
2018-Jun-14 12:30N 49°17' W 123°07'0 0.0
2018-Jun-14 12:00N 49°17' W 123°07'0 0.0
2018-Jun-14 10:59N 49°17' W 123°07'0 0.0
2018-Jun-14 09:23N 49°17' W 123°07'0 0.0
2018-Jun-14 08:17N 49°17' W 123°07'0 0.0
2018-Jun-14 07:56N 49°17' W 123°07'0 0.0
2018-Jun-14 07:29N 49°17' W 123°07'0 0.0
2018-Jun-14 04:17N 49°17' W 123°07'0 0.0
2018-Jun-14 03:56N 49°17' W 123°07'0 0.0
2018-Jun-14 03:14N 49°17' W 123°07'0 0.0
2018-Jun-14 02:59N 49°17' W 123°07'0 0.0
2018-Jun-14 02:29N 49°17' W 123°07'0 0.0
2018-Jun-14 01:56N 49°17' W 123°07'0 0.0
2018-Jun-14 01:29N 49°17' W 123°07'0 0.0
2018-Jun-14 00:44N 49°17' W 123°07'0 0.0
2018-Jun-13 21:02N 49°17' W 123°07'0 0.0
2018-Jun-13 20:50N 49°17' W 123°07'0 0.0
2018-Jun-13 19:20N 49°17' W 123°07'0 0.0
2018-Jun-13 18:56N 49°17' W 123°07'0 0.0
2018-Jun-13 18:20N 49°17' W 123°07'0 0.0
2018-Jun-13 17:38N 49°17' W 123°07'0 0.0
2018-Jun-13 17:08N 49°17' W 123°07'0 0.0
2018-Jun-13 12:08N 49°17' W 123°07'0 0.0
2018-Jun-13 08:08N 49°17' W 123°07'0 0.0
2018-Jun-13 06:32N 49°17' W 123°07'0 0.0
2018-Jun-13 02:14N 49°17' W 123°07'0 0.0
2018-Jun-13 01:56N 49°17' W 123°07'0 0.0
2018-Jun-13 01:20N 49°17' W 123°07'0 0.0
2018-Jun-12 23:50N 49°17' W 123°07'0 0.0
2018-Jun-12 23:26N 49°17' W 123°07'0 0.0
2018-Jun-12 22:56N 49°17' W 123°07'0 0.0
2018-Jun-12 22:30N 49°17' W 123°07'0 0.0
2018-Jun-12 21:54N 49°17' W 123°07'0 0.0
2018-Jun-12 21:24N 49°17' W 123°07'0 0.0
2018-Jun-12 20:42N 49°17' W 123°07'0 0.0
2018-Jun-12 20:24N 49°17' W 123°07'0 0.0
2018-Jun-12 20:00N 49°17' W 123°07'0 0.0
2018-Jun-12 19:30N 49°17' W 123°07'0 0.0
2018-Jun-12 18:54N 49°17' W 123°07'0 0.0
2018-Jun-12 18:24N 49°17' W 123°07'0 0.0
2018-Jun-12 18:00N 49°17' W 123°07'0 0.0
2018-Jun-12 17:24N 49°17' W 123°07'0 0.0
2018-Jun-12 16:54N 49°17' W 123°07'0 0.0
2018-Jun-12 14:12N 49°17' W 123°07'0 0.0
2018-Jun-12 14:00N 49°17' W 123°07'0 0.0
2018-Jun-12 13:30N 49°17' W 123°07'0 0.0
2018-Jun-12 13:00N 49°17' W 123°07'0 0.0
2018-Jun-12 12:24N 49°17' W 123°07'0 0.0
2018-Jun-12 12:00N 49°17' W 123°07'0 0.0
2018-Jun-12 11:30N 49°17' W 123°07'0 0.0
2018-Jun-12 11:00N 49°17' W 123°07'0 0.0
2018-Jun-12 10:24N 49°17' W 123°07'0 0.0
2018-Jun-12 10:00N 49°17' W 123°07'0 0.0
2018-Jun-12 09:24N 49°17' W 123°07'0 0.0
2018-Jun-12 08:58N 49°17' W 123°07'0 0.0
2018-Jun-12 00:40N 49°17' W 123°07'0 0.0
2018-Jun-11 23:34N 49°17' W 123°07'0 0.0
2018-Jun-11 23:22N 49°17' W 123°07'0 0.0
2018-Jun-11 21:52N 49°17' W 123°07'0 0.0
2018-Jun-11 21:28N 49°17' W 123°07'0 0.0
2018-Jun-11 20:46N 49°17' W 123°07'0 0.0
2018-Jun-11 20:22N 49°17' W 123°07'0 0.0
2018-Jun-11 19:58N 49°17' W 123°07'0 0.0
2018-Jun-11 19:16N 49°17' W 123°07'0 0.0
2018-Jun-11 18:55N 49°17' W 123°07'0 0.0
2018-Jun-11 18:19N 49°17' W 123°07'0 0.0
2018-Jun-11 17:58N 49°17' W 123°07'0 0.0
2018-Jun-11 17:25N 49°17' W 123°07'0 0.0
2018-Jun-11 16:58N 49°17' W 123°07'0 0.0
2018-Jun-11 16:28N 49°17' W 123°07'0 0.0
2018-Jun-11 15:46N 49°17' W 123°07'0 0.0
2018-Jun-11 15:16N 49°17' W 123°07'0 0.0
2018-Jun-11 14:58N 49°17' W 123°07'0 0.0
2018-Jun-11 12:10N 49°17' W 123°07'0 0.0
2018-Jun-11 11:58N 49°17' W 123°07'0 0.0
2018-Jun-11 08:22N 49°17' W 123°07'0 0.0
2018-Jun-11 07:34N 49°17' W 123°07'0 0.0
2018-Jun-11 07:28N 49°17' W 123°07'0 0.0
2018-Jun-11 06:58N 49°17' W 123°07'0 0.0
2018-Jun-11 06:28N 49°17' W 123°07'0 0.0
2018-Jun-11 05:58N 49°17' W 123°07'0 0.0
2018-Jun-11 05:28N 49°17' W 123°07'0 0.0
2018-Jun-11 04:58N 49°17' W 123°07'0 0.0
2018-Jun-11 03:58N 49°17' W 123°07'0 0.0
2018-Jun-11 03:28N 49°17' W 123°07'0 0.0
2018-Jun-11 02:58N 49°17' W 123°07'0 0.0
2018-Jun-11 01:52N 49°17' W 123°07'0 0.0
2018-Jun-11 00:16N 49°17' W 123°07'0 0.0
2018-Jun-10 23:58N 49°17' W 123°07'0 0.0
2018-Jun-10 22:22N 49°17' W 123°07'0 0.0
2018-Jun-10 21:55N 49°17' W 123°07'0 0.0
2018-Jun-10 21:28N 49°17' W 123°07'0 0.0
2018-Jun-10 20:16N 49°17' W 123°07'0 0.0
2018-Jun-10 19:22N 49°17' W 123°07'0 0.0
2018-Jun-10 18:46N 49°17' W 123°07'0 0.0
2018-Jun-10 18:22N 49°17' W 123°07'0 0.0
2018-Jun-10 17:52N 49°17' W 123°07'0 0.0
2018-Jun-10 17:28N 49°17' W 123°07'0 0.0
2018-Jun-10 16:58N 49°17' W 123°07'0 0.0
2018-Jun-10 16:28N 49°17' W 123°07'0 0.0
2018-Jun-10 16:00N 49°17' W 123°07'0 0.0
2018-Jun-10 15:20N 49°17' W 123°07'0 0.0
2018-Jun-10 14:38N 49°17' W 123°07'0 0.0
2018-Jun-10 14:26N 49°17' W 123°07'0 0.0
2018-Jun-10 13:20N 49°17' W 123°07'0 0.0
2018-Jun-10 12:50N 49°17' W 123°07'0 0.0
2018-Jun-10 12:26N 49°17' W 123°07'0 0.0
2018-Jun-10 09:26N 49°17' W 123°07'0 0.0
2018-Jun-10 07:20N 49°17' W 123°07'0 0.0
2018-Jun-10 06:44N 49°17' W 123°07'0 0.0
2018-Jun-10 02:02N 49°17' W 123°07'0 0.0
2018-Jun-10 01:44N 49°17' W 123°07'0 0.0
2018-Jun-09 22:32N 49°17' W 123°07'0 0.1
2018-Jun-09 22:26N 49°17' W 123°07'0 0.0
2018-Jun-09 21:41N 49°17' W 123°07'0 0.0
2018-Jun-09 21:17N 49°17' W 123°07'0 0.0
2018-Jun-09 20:59N 49°17' W 123°07'0 0.0
2018-Jun-09 20:29N 49°17' W 123°07'0 0.0
2018-Jun-09 19:53N 49°17' W 123°07'0 0.0
2018-Jun-09 19:29N 49°17' W 123°07'0 0.0
2018-Jun-09 18:41N 49°17' W 123°07'0 0.0
2018-Jun-09 18:29N 49°17' W 123°07'0 0.0
2018-Jun-09 17:59N 49°17' W 123°07'0 0.0
2018-Jun-09 17:29N 49°17' W 123°07'0 0.0
2018-Jun-09 16:59N 49°17' W 123°07'  
Track history (hours):
 
Tides and Currents Weather Stations Pressure Air Temp Water Temp Dewpoint Dewpoint Depression Visibility Wind Speed Wind Dir Waves Ship Positions

Janus

Last reported at 2018-Jun-19 16:33 UTC. Time now 2018-Jun-20 11:27 UTC.
Position N 52°16' W 128°41'.

Length 25 m.

Type: Pleasure craft. MMSI: 316019802.

Date/timePositionNaut miles runAvg speedWind from/ knotsBaromVisibWave heightAir tempDewpointWater temp
2018-Jun-19 16:33N 52°16' W 128°41'20 3.1
2018-Jun-19 09:55N 52°12' W 128°08'0 0.0
2018-Jun-19 09:16N 52°12' W 128°08'0 0.0
2018-Jun-19 08:05N 52°12' W 128°08'0 0.0
2018-Jun-19 07:52N 52°12' W 128°08'0 0.1
2018-Jun-19 07:19N 52°12' W 128°08'0 0.1
2018-Jun-19 06:58N 52°12' W 128°08'0 0.0
2018-Jun-19 06:25N 52°12' W 128°08'2 0.3
2018-Jun-19 01:11N 52°11' W 128°07'1 8.1
2018-Jun-19 01:00N 52°09' W 128°08'4 8.7
2018-Jun-19 00:30N 52°05' W 128°06'5 9.3
2018-Jun-19 00:00N 52°04' W 127°58'5 8.2
2018-Jun-18 23:26N 52°00' W 127°56'4 9.0
2018-Jun-18 23:01N 51°56' W 127°55'5 9.4
2018-Jun-18 22:30N 51°52' W 127°55'5 9.4
2018-Jun-18 22:00N 51°47' W 127°55'4 8.5
2018-Jun-18 21:30N 51°43' W 127°54'4 8.8
2018-Jun-18 21:00N 51°38' W 127°54'4 8.8
2018-Jun-18 20:30N 51°34' W 127°53'17 8.7
2018-Jun-18 18:29N 51°16' W 127°51'7 8.3
2018-Jun-18 17:37N 51°09' W 127°50'2 8.6
2018-Jun-18 17:22N 51°07' W 127°48'4 9.1
2018-Jun-18 16:56N 51°05' W 127°43'4 9.4
2018-Jun-18 16:30N 51°02' W 127°38'5 9.2
2018-Jun-18 15:59N 50°59' W 127°33'4 7.3
2018-Jun-18 15:29N 50°57' W 127°28'4 8.3
2018-Jun-18 15:00N 50°54' W 127°23'4 7.4
2018-Jun-18 14:27N 50°54' W 127°17'1 0.5
2018-Jun-18 13:06N 50°54' W 127°17'0 0.0
2018-Jun-18 12:42N 50°54' W 127°17'0 0.0
2018-Jun-18 12:30N 50°54' W 127°17'0 0.0
2018-Jun-18 12:00N 50°54' W 127°17'0 0.0
2018-Jun-18 11:24N 50°54' W 127°17'0 0.0
2018-Jun-18 10:52N 50°54' W 127°17'0 0.0
2018-Jun-18 10:28N 50°54' W 127°17'0 0.0
2018-Jun-18 09:58N 50°54' W 127°17'0 0.1
2018-Jun-18 09:28N 50°54' W 127°17'0 0.1
2018-Jun-18 08:58N 50°54' W 127°17'0 0.0
2018-Jun-18 08:22N 50°54' W 127°17'0 0.1
2018-Jun-18 07:58N 50°54' W 127°17'0 0.1
2018-Jun-18 07:28N 50°54' W 127°17'0 0.1
2018-Jun-18 06:51N 50°54' W 127°17'0 0.0
2018-Jun-18 06:09N 50°54' W 127°17'0 0.0
2018-Jun-18 05:39N 50°54' W 127°17'0 0.0
2018-Jun-18 05:21N 50°54' W 127°17'0 0.1
2018-Jun-18 04:57N 50°54' W 127°17'0 0.0
2018-Jun-18 04:27N 50°54' W 127°17'0 0.1
2018-Jun-18 03:51N 50°54' W 127°17'0 0.0
2018-Jun-18 03:21N 50°54' W 127°17'0 0.0
2018-Jun-18 02:51N 50°54' W 127°17'0 0.0
2018-Jun-18 02:27N 50°54' W 127°17'0 0.0
2018-Jun-18 01:51N 50°54' W 127°17'1 3.3
2018-Jun-18 01:30N 50°53' W 127°16'4 8.6
2018-Jun-18 00:59N 50°50' W 127°11'79 8.0
2018-Jun-17 15:08N 50°25' W 125°13'1 9.6
2018-Jun-17 14:59N 50°24' W 125°11'4 7.2
2018-Jun-17 14:29N 50°21' W 125°08'2 5.1
2018-Jun-17 14:00N 50°19' W 125°06'3 5.7
2018-Jun-17 13:30N 50°16' W 125°04'3 6.2
2018-Jun-17 13:00N 50°14' W 125°02'4 7.2
2018-Jun-17 12:30N 50°10' W 125°01'2 3.0
2018-Jun-17 11:58N 50°08' W 125°00'0 0.0
2018-Jun-17 11:28N 50°08' W 125°00'0 0.0
2018-Jun-17 11:00N 50°08' W 125°00'0 0.1
2018-Jun-17 10:30N 50°08' W 125°00'0 0.1
2018-Jun-17 10:00N 50°08' W 125°00'0 0.0
2018-Jun-17 09:30N 50°08' W 125°00'0 0.0
2018-Jun-17 09:00N 50°08' W 125°00'0 0.0
2018-Jun-17 08:30N 50°08' W 125°00'0 0.0
2018-Jun-17 08:00N 50°08' W 125°00'0 0.0
2018-Jun-17 07:30N 50°08' W 125°00'0 0.1
2018-Jun-17 07:00N 50°08' W 125°00'0 0.0
2018-Jun-17 06:30N 50°08' W 125°00'0 0.0
2018-Jun-17 06:00N 50°08' W 125°00'0 0.1
2018-Jun-17 05:27N 50°08' W 125°00'0 0.1
2018-Jun-17 05:00N 50°08' W 125°00'0 0.1
2018-Jun-17 04:30N 50°08' W 125°00'0 0.0
2018-Jun-17 04:00N 50°08' W 125°00'0 0.0
2018-Jun-17 03:30N 50°08' W 125°00'4 7.5
2018-Jun-17 03:00N 50°12' W 125°00'2 4.2
2018-Jun-17 02:30N 50°13' W 124°58'5 9.2
2018-Jun-17 02:00N 50°09' W 124°54'1 2.6
2018-Jun-17 01:28N 50°08' W 124°55'3 7.2
2018-Jun-17 01:00N 50°05' W 124°53'4 8.8
2018-Jun-17 00:29N 50°01' W 124°49'4 8.9
2018-Jun-17 00:00N 49°58' W 124°45'4 8.4
2018-Jun-16 23:30N 49°55' W 124°41'5 8.5
2018-Jun-16 22:55N 49°51' W 124°36'6 8.3
2018-Jun-16 22:09N 49°47' W 124°29'3 8.6
2018-Jun-16 21:49N 49°45' W 124°25'51 7.7
2018-Jun-16 15:12N 49°19' W 123°17'4 9.1
2018-Jun-16 14:45N 49°19' W 123°11'2 8.6
2018-Jun-16 14:30N 49°19' W 123°08'1 2.0
2018-Jun-16 13:55N 49°17' W 123°07'0 0.0
2018-Jun-16 12:34N 49°17' W 123°07'0 0.0
2018-Jun-16 11:07N 49°17' W 123°07'0 0.0
2018-Jun-16 10:37N 49°17' W 123°07'0 0.0
2018-Jun-16 10:13N 49°17' W 123°07'0 0.0
2018-Jun-16 09:55N 49°17' W 123°07'0 0.0
2018-Jun-16 09:19N 49°17' W 123°07'0 0.0
2018-Jun-16 06:37N 49°17' W 123°07'0 0.0
2018-Jun-16 05:07N 49°17' W 123°07'0 0.0
2018-Jun-16 04:55N 49°17' W 123°07'0 0.0
2018-Jun-16 03:25N 49°17' W 123°07'0 0.0
2018-Jun-15 22:49N 49°17' W 123°07'0 0.0
2018-Jun-15 22:28N 49°17' W 123°07'0 0.0
2018-Jun-15 21:46N 49°17' W 123°07'0 0.0
2018-Jun-15 21:22N 49°17' W 123°07'0 0.0
2018-Jun-15 20:43N 49°17' W 123°07'0 0.0
2018-Jun-15 19:47N 49°17' W 123°07'0 0.0
2018-Jun-15 19:26N 49°17' W 123°07'0 0.0
2018-Jun-15 18:56N 49°17' W 123°07'0 0.0
2018-Jun-15 18:26N 49°17' W 123°07'0 0.0
2018-Jun-15 17:41N 49°17' W 123°07'0 0.0
2018-Jun-15 07:39N 49°17' W 123°07'0 0.0
2018-Jun-15 07:15N 49°17' W 123°07'0 0.0
2018-Jun-15 06:51N 49°17' W 123°07'0 0.0
2018-Jun-15 06:15N 49°17' W 123°07'0 0.0
2018-Jun-15 05:57N 49°17' W 123°07'0 0.0
2018-Jun-15 04:27N 49°17' W 123°07'0 0.0
2018-Jun-15 03:51N 49°17' W 123°07'0 0.0
2018-Jun-15 03:21N 49°17' W 123°07'0 0.0
2018-Jun-15 02:54N 49°17' W 123°07'0 0.0
2018-Jun-15 02:15N 49°17' W 123°07'0 0.0
2018-Jun-15 01:18N 49°17' W 123°07'0 0.0
2018-Jun-15 00:48N 49°17' W 123°07'0 0.0
2018-Jun-15 00:21N 49°17' W 123°07'0 0.0
2018-Jun-15 00:00N 49°17' W 123°07'0 0.0
2018-Jun-14 23:21N 49°17' W 123°07'0 0.0
2018-Jun-14 22:54N 49°17' W 123°07'0 0.0
2018-Jun-14 22:18N 49°17' W 123°07'0 0.0
2018-Jun-14 21:51N 49°17' W 123°07'0 0.0
2018-Jun-14 21:27N 49°17' W 123°07'0 0.0
2018-Jun-14 20:45N 49°17' W 123°07'0 0.0
2018-Jun-14 20:06N 49°17' W 123°07'0 0.0
2018-Jun-14 20:00N 49°17' W 123°07'0 0.0
2018-Jun-14 19:21N 49°17' W 123°07'0 0.0
2018-Jun-14 19:00N 49°17' W 123°07'0 0.0
2018-Jun-14 18:21N 49°17' W 123°07'0 0.0
2018-Jun-14 17:48N 49°17' W 123°07'0 0.0
2018-Jun-14 17:30N 49°17' W 123°07'0 0.0
2018-Jun-14 16:57N 49°17' W 123°07'0 0.0
2018-Jun-14 15:39N 49°17' W 123°07'0 0.0
2018-Jun-14 15:09N 49°17' W 123°07'0 0.0
2018-Jun-14 14:54N 49°17' W 123°07'0 0.0
2018-Jun-14 14:30N 49°17' W 123°07'0 0.0
2018-Jun-14 14:00N 49°17' W 123°07'0 0.0
2018-Jun-14 13:24N 49°17' W 123°07'0 0.0
2018-Jun-14 13:00N 49°17' W 123°07'0 0.0
2018-Jun-14 12:30N 49°17' W 123°07'0 0.0
2018-Jun-14 12:00N 49°17' W 123°07'0 0.0
2018-Jun-14 10:59N 49°17' W 123°07'0 0.0
2018-Jun-14 09:23N 49°17' W 123°07'0 0.0
2018-Jun-14 08:17N 49°17' W 123°07'0 0.0
2018-Jun-14 07:56N 49°17' W 123°07'0 0.0
2018-Jun-14 07:29N 49°17' W 123°07'0 0.0
2018-Jun-14 04:17N 49°17' W 123°07'0 0.0
2018-Jun-14 03:56N 49°17' W 123°07'0 0.0
2018-Jun-14 03:14N 49°17' W 123°07'0 0.0
2018-Jun-14 02:59N 49°17' W 123°07'0 0.0
2018-Jun-14 02:29N 49°17' W 123°07'0 0.0
2018-Jun-14 01:56N 49°17' W 123°07'0 0.0
2018-Jun-14 01:29N 49°17' W 123°07'0 0.0
2018-Jun-14 00:44N 49°17' W 123°07'0 0.0
2018-Jun-13 21:02N 49°17' W 123°07'0 0.0
2018-Jun-13 20:50N 49°17' W 123°07'0 0.0
2018-Jun-13 19:20N 49°17' W 123°07'0 0.0
2018-Jun-13 18:56N 49°17' W 123°07'0 0.0
2018-Jun-13 18:20N 49°17' W 123°07'0 0.0
2018-Jun-13 17:38N 49°17' W 123°07'0 0.0
2018-Jun-13 17:08N 49°17' W 123°07'0 0.0
2018-Jun-13 12:08N 49°17' W 123°07'0 0.0
2018-Jun-13 08:08N 49°17' W 123°07'0 0.0
2018-Jun-13 06:32N 49°17' W 123°07'0 0.0
2018-Jun-13 02:14N 49°17' W 123°07'0 0.0
2018-Jun-13 01:56N 49°17' W 123°07'0 0.0
2018-Jun-13 01:20N 49°17' W 123°07'0 0.0
2018-Jun-12 23:50N 49°17' W 123°07'0 0.0
2018-Jun-12 23:26N 49°17' W 123°07'0 0.0
2018-Jun-12 22:56N 49°17' W 123°07'0 0.0
2018-Jun-12 22:30N 49°17' W 123°07'0 0.0
2018-Jun-12 21:54N 49°17' W 123°07'0 0.0
2018-Jun-12 21:24N 49°17' W 123°07'0 0.0
2018-Jun-12 20:42N 49°17' W 123°07'0 0.0
2018-Jun-12 20:24N 49°17' W 123°07'0 0.0
2018-Jun-12 20:00N 49°17' W 123°07'0 0.0
2018-Jun-12 19:30N 49°17' W 123°07'0 0.0
2018-Jun-12 18:54N 49°17' W 123°07'0 0.0
2018-Jun-12 18:24N 49°17' W 123°07'0 0.0
2018-Jun-12 18:00N 49°17' W 123°07'0 0.0
2018-Jun-12 17:24N 49°17' W 123°07'0 0.0
2018-Jun-12 16:54N 49°17' W 123°07'0 0.0
2018-Jun-12 14:12N 49°17' W 123°07'0 0.0
2018-Jun-12 14:00N 49°17' W 123°07'0 0.0
2018-Jun-12 13:30N 49°17' W 123°07'0 0.0
2018-Jun-12 13:00N 49°17' W 123°07'0 0.0
2018-Jun-12 12:24N 49°17' W 123°07'0 0.0
2018-Jun-12 12:00N 49°17' W 123°07'0 0.0
2018-Jun-12 11:30N 49°17' W 123°07'0 0.0
2018-Jun-12 11:00N 49°17' W 123°07'0 0.0
2018-Jun-12 10:24N 49°17' W 123°07'0 0.0
2018-Jun-12 10:00N 49°17' W 123°07'0 0.0
2018-Jun-12 09:24N 49°17' W 123°07'0 0.0
2018-Jun-12 08:58N 49°17' W 123°07'0 0.0
2018-Jun-12 00:40N 49°17' W 123°07'0 0.0
2018-Jun-11 23:34N 49°17' W 123°07'0 0.0
2018-Jun-11 23:22N 49°17' W 123°07'0 0.0
2018-Jun-11 21:52N 49°17' W 123°07'0 0.0
2018-Jun-11 21:28N 49°17' W 123°07'0 0.0
2018-Jun-11 20:46N 49°17' W 123°07'0 0.0
2018-Jun-11 20:22N 49°17' W 123°07'0 0.0
2018-Jun-11 19:58N 49°17' W 123°07'0 0.0
2018-Jun-11 19:16N 49°17' W 123°07'0 0.0
2018-Jun-11 18:55N 49°17' W 123°07'0 0.0
2018-Jun-11 18:19N 49°17' W 123°07'0 0.0
2018-Jun-11 17:58N 49°17' W 123°07'0 0.0
2018-Jun-11 17:25N 49°17' W 123°07'0 0.0
2018-Jun-11 16:58N 49°17' W 123°07'0 0.0
2018-Jun-11 16:28N 49°17' W 123°07'0 0.0
2018-Jun-11 15:46N 49°17' W 123°07'0 0.0
2018-Jun-11 15:16N 49°17' W 123°07'0 0.0
2018-Jun-11 14:58N 49°17' W 123°07'0 0.0
2018-Jun-11 12:10N 49°17' W 123°07'0 0.0
2018-Jun-11 11:58N 49°17' W 123°07'0 0.0
2018-Jun-11 08:22N 49°17' W 123°07'0 0.0
2018-Jun-11 07:34N 49°17' W 123°07'0 0.0
2018-Jun-11 07:28N 49°17' W 123°07'0 0.0
2018-Jun-11 06:58N 49°17' W 123°07'0 0.0
2018-Jun-11 06:28N 49°17' W 123°07'0 0.0
2018-Jun-11 05:58N 49°17' W 123°07'0 0.0
2018-Jun-11 05:28N 49°17' W 123°07'0 0.0
2018-Jun-11 04:58N 49°17' W 123°07'0 0.0
2018-Jun-11 03:58N 49°17' W 123°07'0 0.0
2018-Jun-11 03:28N 49°17' W 123°07'0 0.0
2018-Jun-11 02:58N 49°17' W 123°07'0 0.0
2018-Jun-11 01:52N 49°17' W 123°07'0 0.0
2018-Jun-11 00:16N 49°17' W 123°07'0 0.0
2018-Jun-10 23:58N 49°17' W 123°07'0 0.0
2018-Jun-10 22:22N 49°17' W 123°07'0 0.0
2018-Jun-10 21:55N 49°17' W 123°07'0 0.0
2018-Jun-10 21:28N 49°17' W 123°07'0 0.0
2018-Jun-10 20:16N 49°17' W 123°07'0 0.0
2018-Jun-10 19:22N 49°17' W 123°07'0 0.0
2018-Jun-10 18:46N 49°17' W 123°07'0 0.0
2018-Jun-10 18:22N 49°17' W 123°07'0 0.0
2018-Jun-10 17:52N 49°17' W 123°07'0 0.0
2018-Jun-10 17:28N 49°17' W 123°07'0 0.0
2018-Jun-10 16:58N 49°17' W 123°07'0 0.0
2018-Jun-10 16:28N 49°17' W 123°07'0 0.0
2018-Jun-10 16:00N 49°17' W 123°07'0 0.0
2018-Jun-10 15:20N 49°17' W 123°07'0 0.0
2018-Jun-10 14:38N 49°17' W 123°07'0 0.0
2018-Jun-10 14:26N 49°17' W 123°07'0 0.0
2018-Jun-10 13:20N 49°17' W 123°07'0 0.0
2018-Jun-10 12:50N 49°17' W 123°07'0 0.0
2018-Jun-10 12:26N 49°17' W 123°07'0 0.0
2018-Jun-10 09:26N 49°17' W 123°07'0 0.0
2018-Jun-10 07:20N 49°17' W 123°07'0 0.0
2018-Jun-10 06:44N 49°17' W 123°07'0 0.0
2018-Jun-10 02:02N 49°17' W 123°07'0 0.0
2018-Jun-10 01:44N 49°17' W 123°07'0 0.0
2018-Jun-09 22:32N 49°17' W 123°07'0 0.1
2018-Jun-09 22:26N 49°17' W 123°07'0 0.0
2018-Jun-09 21:41N 49°17' W 123°07'0 0.0
2018-Jun-09 21:17N 49°17' W 123°07'0 0.0
2018-Jun-09 20:59N 49°17' W 123°07'0 0.0
2018-Jun-09 20:29N 49°17' W 123°07'0 0.0
2018-Jun-09 19:53N 49°17' W 123°07'0 0.0
2018-Jun-09 19:29N 49°17' W 123°07'0 0.0
2018-Jun-09 18:41N 49°17' W 123°07'0 0.0
2018-Jun-09 18:29N 49°17' W 123°07'0 0.0
2018-Jun-09 17:59N 49°17' W 123°07'0 0.0
2018-Jun-09 17:29N 49°17' W 123°07'0 0.0
2018-Jun-09 16:59N 49°17' W 123°07'  

Dump ship's entire track history